Time;durP1;ratioP1;P1;durP2;ratioP2;P2;SDS_P1;SDS_P2;PMS_P1;PMS_P2;Temp;Humidity;BMP_temperature;BMP_pressure;BME280_temperature;BME280_humidity;BME280_pressure;Samples;Min_cycle;Max_cycle;Signal;HPM_P1;HPM_P2
2023/04/09 00:00:23;;;;;;;66.85;32.85;;;4.90;99.90;;;;;;5036254;28;20036;-72
2023/04/09 00:02:48;;;;;;;66.10;32.53;;;4.80;99.90;;;;;;5035685;28;20043;-72
2023/04/09 00:05:14;;;;;;;70.43;35.63;;;4.70;99.90;;;;;;5035787;28;20543;-72
2023/04/09 00:07:39;;;;;;;79.22;38.33;;;4.70;99.90;;;;;;5035754;28;20360;-72
2023/04/09 00:10:05;;;;;;;77.65;38.60;;;4.80;99.90;;;;;;5036134;28;20033;-72
2023/04/09 00:12:31;;;;;;;76.90;37.75;;;4.70;99.90;;;;;;5036040;28;20045;-72
2023/04/09 00:14:57;;;;;;;82.88;40.72;;;4.80;99.90;;;;;;5035901;28;20033;-73
2023/04/09 00:17:22;;;;;;;79.97;39.65;;;4.90;99.90;;;;;;5035352;28;20079;-72
2023/04/09 00:19:47;;;;;;;72.25;36.75;;;4.90;99.90;;;;;;5035338;28;20017;-73
2023/04/09 00:22:14;;;;;;;72.97;36.45;;;5.00;99.90;;;;;;5035770;28;20040;-72
2023/04/09 00:24:40;;;;;;;68.35;34.78;;;5.10;99.90;;;;;;5035632;28;20022;-72
2023/04/09 00:27:05;;;;;;;73.72;35.95;;;5.10;99.90;;;;;;5035303;28;20039;-72
2023/04/09 00:29:31;;;;;;;72.50;33.97;;;5.00;99.90;;;;;;5035532;28;20060;-72
2023/04/09 00:31:56;;;;;;;70.72;35.88;;;4.90;99.90;;;;;;5035259;28;20022;-72
2023/04/09 00:34:22;;;;;;;73.47;35.50;;;4.90;99.90;;;;;;5035492;28;20026;-72
2023/04/09 00:36:47;;;;;;;69.85;35.15;;;4.90;99.90;;;;;;5034871;28;20044;-72
2023/04/09 00:39:13;;;;;;;69.63;36.20;;;5.00;99.90;;;;;;5035370;28;20391;-72
2023/04/09 00:41:39;;;;;;;75.07;36.08;;;5.00;99.90;;;;;;5035404;28;20022;-72
2023/04/09 00:44:04;;;;;;;66.25;34.35;;;5.00;99.90;;;;;;5035071;28;20029;-72
2023/04/09 00:46:31;;;;;;;68.90;33.53;;;5.00;99.90;;;;;;5034822;28;20028;-72
2023/04/09 00:48:57;;;;;;;66.78;33.70;;;4.80;99.90;;;;;;5035470;28;20079;-72
2023/04/09 00:51:22;;;;;;;64.18;32.78;;;4.60;99.90;;;;;;5034801;28;20037;-72
2023/04/09 00:53:48;;;;;;;68.20;34.33;;;4.50;99.90;;;;;;5034721;28;20502;-72
2023/04/09 00:56:15;;;;;;;66.90;33.95;;;4.40;99.90;;;;;;5034822;28;20032;-72
2023/04/09 00:58:40;;;;;;;68.97;33.63;;;4.30;99.90;;;;;;5034841;28;20172;-72
2023/04/09 01:01:06;;;;;;;77.50;36.63;;;4.20;99.90;;;;;;5034983;28;20108;-72
2023/04/09 01:03:31;;;;;;;73.75;34.83;;;4.30;99.90;;;;;;5034964;28;20116;-72
2023/04/09 01:06:11;;;;;;;73.15;34.67;;;4.30;99.90;;;;;;5034465;28;20026;-72
2023/04/09 01:08:48;;;;;;;73.95;35.08;;;4.20;99.90;;;;;;5034856;28;20033;-72
2023/04/09 01:11:37;;;;;;;73.28;35.55;;;4.20;99.90;;;;;;5034458;28;20029;-72
2023/04/09 01:14:11;;;;;;;76.75;37.80;;;4.20;99.90;;;;;;5034703;28;20059;-72
2023/04/09 01:16:39;;;;;;;75.90;36.42;;;4.30;99.90;;;;;;5034780;28;20033;-72
2023/04/09 01:19:18;;;;;;;75.07;36.22;;;4.30;99.90;;;;;;5034294;28;20025;-72
2023/04/09 01:21:45;;;;;;;75.03;37.05;;;4.40;99.90;;;;;;5034879;28;20480;-72
2023/04/09 01:24:50;;;;;;;85.95;38.47;;;4.40;99.90;;;;;;5034448;28;20408;-72
2023/04/09 01:27:16;;;;;;;85.43;38.90;;;4.70;99.90;;;;;;5033969;28;20060;-72
2023/04/09 01:29:46;;;;;;;87.63;39.25;;;4.80;99.90;;;;;;5034467;28;20037;-72
2023/04/09 01:32:15;;;;;;;89.10;41.00;;;4.70;99.90;;;;;;5034499;28;20030;-72
2023/04/09 01:34:43;;;;;;;90.38;41.30;;;4.80;99.90;;;;;;5034545;28;20392;-73
2023/04/09 01:37:11;;;;;;;88.38;38.58;;;4.70;99.90;;;;;;5034024;28;20049;-72
2023/04/09 01:39:37;;;;;;;82.60;38.35;;;4.70;99.90;;;;;;5034356;28;20476;-73
2023/04/09 01:42:04;;;;;;;92.43;41.20;;;4.80;99.90;;;;;;5034165;28;20480;-72
2023/04/09 01:44:30;;;;;;;91.47;40.60;;;4.80;99.90;;;;;;5034165;28;20032;-72
2023/04/09 01:46:57;;;;;;;84.72;41.10;;;4.80;99.90;;;;;;5034073;28;20079;-72
2023/04/09 01:49:23;;;;;;;87.68;39.67;;;4.70;99.90;;;;;;5033678;28;20544;-72
2023/04/09 01:51:49;;;;;;;87.20;39.85;;;4.70;99.90;;;;;;5034122;28;20116;-72
2023/04/09 01:54:15;;;;;;;84.65;40.65;;;4.70;99.90;;;;;;5034093;28;20475;-72
2023/04/09 01:56:44;;;;;;;91.05;39.42;;;4.70;99.90;;;;;;5034110;28;20029;-72
2023/04/09 01:59:09;;;;;;;88.22;39.72;;;4.60;99.90;;;;;;5033672;28;20033;-72
2023/04/09 02:01:42;;;;;;;87.53;41.05;;;4.60;99.90;;;;;;5034027;28;20025;-72
2023/04/09 02:04:16;;;;;;;90.82;39.83;;;4.60;99.90;;;;;;5033663;28;20021;-72
2023/04/09 02:07:18;;;;;;;90.68;41.75;;;4.50;99.90;;;;;;5033480;28;20033;-72
2023/04/09 02:09:46;;;;;;;94.95;41.75;;;4.50;99.90;;;;;;5033290;28;20507;-72
2023/04/09 02:12:16;;;;;;;89.22;39.90;;;4.50;99.90;;;;;;5033913;28;20434;-72
2023/04/09 02:14:45;;;;;;;94.85;41.47;;;4.40;99.90;;;;;;5033768;28;20029;-72
2023/04/09 02:17:12;;;;;;;85.43;39.33;;;4.40;99.90;;;;;;5033317;28;21921;-72
2023/04/09 02:19:42;;;;;;;88.75;41.25;;;4.30;99.90;;;;;;5033849;28;20395;-73
2023/04/09 02:22:07;;;;;;;95.32;42.97;;;4.30;99.90;;;;;;5033322;28;20025;-72
2023/04/09 02:24:33;;;;;;;93.82;41.05;;;4.30;99.90;;;;;;5033110;28;20033;-72
2023/04/09 02:26:58;;;;;;;88.25;40.63;;;4.30;99.90;;;;;;5033215;28;20032;-72
2023/04/09 02:29:24;;;;;;;93.05;42.80;;;4.30;99.90;;;;;;5033537;28;20105;-72
2023/04/09 02:31:51;;;;;;;95.07;44.80;;;4.10;99.90;;;;;;5033493;28;20025;-72
2023/04/09 02:34:17;;;;;;;91.75;42.53;;;4.10;99.90;;;;;;5033047;28;20037;-72
2023/04/09 02:36:43;;;;;;;99.70;43.60;;;4.00;99.90;;;;;;5033323;28;20427;-72
2023/04/09 02:39:08;;;;;;;98.45;44.88;;;4.00;99.90;;;;;;5033149;28;20395;-72
2023/04/09 02:41:34;;;;;;;99.10;44.13;;;4.00;99.90;;;;;;5032846;28;20546;-73
2023/04/09 02:44:00;;;;;;;102.72;45.28;;;4.00;99.90;;;;;;5033356;28;20029;-72
2023/04/09 02:46:25;;;;;;;91.20;42.03;;;3.90;99.90;;;;;;5033332;28;20041;-72
2023/04/09 02:48:51;;;;;;;94.97;45.63;;;3.90;99.90;;;;;;5033256;28;20392;-72
2023/04/09 02:51:16;;;;;;;113.80;46.85;;;3.80;99.90;;;;;;5033559;28;20033;-72
2023/04/09 02:53:42;;;;;;;106.20;45.63;;;3.80;99.90;;;;;;5033270;28;20029;-73
2023/04/09 02:56:07;;;;;;;107.88;48.40;;;3.70;99.90;;;;;;5032860;28;20397;-72
2023/04/09 02:58:33;;;;;;;99.30;45.78;;;3.60;99.90;;;;;;5032746;28;20120;-72
2023/04/09 03:00:58;;;;;;;107.68;46.70;;;3.60;99.90;;;;;;5033221;28;20040;-72
2023/04/09 03:03:24;;;;;;;100.07;43.55;;;3.50;99.90;;;;;;5033280;28;20030;-72
2023/04/09 03:05:50;;;;;;;103.30;43.15;;;3.40;99.90;;;;;;5033193;28;20032;-72
2023/04/09 03:08:15;;;;;;;108.68;43.42;;;3.30;99.90;;;;;;5033155;28;20026;-72
2023/04/09 03:10:41;;;;;;;102.90;45.33;;;3.20;99.90;;;;;;5033164;28;20433;-72
2023/04/09 03:13:06;;;;;;;97.88;44.70;;;3.20;99.90;;;;;;5033009;28;20017;-72
2023/04/09 03:15:32;;;;;;;107.72;44.88;;;3.10;99.90;;;;;;5033008;28;20045;-72
2023/04/09 03:17:57;;;;;;;103.63;43.78;;;3.10;99.90;;;;;;5032816;28;20400;-72
2023/04/09 03:20:23;;;;;;;103.28;43.40;;;3.10;99.90;;;;;;5034515;28;20022;-72
2023/04/09 03:22:48;;;;;;;105.95;45.67;;;3.00;99.90;;;;;;5036430;28;20028;-72
2023/04/09 03:25:14;;;;;;;99.72;43.17;;;3.00;99.90;;;;;;5036586;28;20032;-72
2023/04/09 03:27:39;;;;;;;115.43;47.35;;;3.00;99.90;;;;;;5036968;28;20399;-72
2023/04/09 03:30:05;;;;;;;96.15;43.28;;;3.00;99.90;;;;;;5036776;28;20030;-72
2023/04/09 03:32:31;;;;;;;98.13;42.55;;;2.90;99.90;;;;;;5036773;28;20364;-72
2023/04/09 03:34:56;;;;;;;96.65;42.55;;;2.90;99.90;;;;;;5036716;28;20041;-72
2023/04/09 03:37:22;;;;;;;97.50;42.88;;;2.80;99.90;;;;;;5035901;28;20048;-72
2023/04/09 03:39:47;;;;;;;95.57;43.05;;;2.80;99.90;;;;;;5036607;28;20050;-72
2023/04/09 03:42:13;;;;;;;92.65;40.28;;;2.70;99.90;;;;;;5036607;28;20026;-72
2023/04/09 03:44:39;;;;;;;100.50;43.63;;;2.70;99.90;;;;;;5036582;28;20382;-72
2023/04/09 03:47:05;;;;;;;105.35;45.42;;;2.60;99.90;;;;;;5036373;28;20083;-72
2023/04/09 03:49:30;;;;;;;106.10;45.00;;;2.60;99.90;;;;;;5036010;28;20471;-72
2023/04/09 03:51:56;;;;;;;94.35;42.65;;;2.60;99.90;;;;;;5036445;28;20021;-72
2023/04/09 03:54:21;;;;;;;104.65;46.38;;;2.50;99.90;;;;;;5036400;28;20112;-72
2023/04/09 03:56:47;;;;;;;99.05;42.40;;;2.40;99.90;;;;;;5036072;28;20387;-72
2023/04/09 03:59:12;;;;;;;96.20;43.28;;;2.40;99.90;;;;;;5035950;28;20029;-73
2023/04/09 04:01:38;;;;;;;89.80;42.30;;;2.40;99.90;;;;;;5035916;28;20029;-73
2023/04/09 04:04:04;;;;;;;97.13;41.58;;;2.40;99.90;;;;;;5036134;28;20032;-72
2023/04/09 04:06:33;;;;;;;93.13;41.45;;;2.30;99.90;;;;;;5035981;28;20037;-72
2023/04/09 04:08:59;;;;;;;103.80;44.03;;;2.30;99.90;;;;;;5036013;28;20040;-72
2023/04/09 04:11:24;;;;;;;105.80;45.33;;;2.30;99.90;;;;;;5035954;28;20029;-72
2023/04/09 04:13:50;;;;;;;99.32;42.83;;;2.30;99.90;;;;;;5036022;28;20387;-72
2023/04/09 04:16:15;;;;;;;107.53;45.17;;;2.30;99.90;;;;;;5035798;28;20029;-72
2023/04/09 04:18:41;;;;;;;117.03;47.30;;;2.30;99.90;;;;;;5035725;28;20030;-72
2023/04/09 04:21:12;;;;;;;106.20;45.72;;;2.30;99.90;;;;;;5035866;28;20022;-72
2023/04/09 04:23:37;;;;;;;116.15;46.88;;;2.30;99.90;;;;;;5035600;28;20034;-73
2023/04/09 04:26:08;;;;;;;112.88;47.50;;;2.30;99.90;;;;;;5035296;28;20033;-72
2023/04/09 04:28:35;;;;;;;114.28;48.00;;;2.30;99.90;;;;;;5035668;28;20569;-73
2023/04/09 04:31:00;;;;;;;120.72;50.38;;;2.30;99.90;;;;;;5035280;28;20427;-72
2023/04/09 04:33:26;;;;;;;110.15;46.90;;;2.40;99.90;;;;;;5035589;28;20034;-72
2023/04/09 04:35:51;;;;;;;110.63;47.30;;;2.30;99.90;;;;;;5035585;28;20054;-72
2023/04/09 04:38:17;;;;;;;122.93;49.42;;;2.30;99.90;;;;;;5035189;28;20139;-72
2023/04/09 04:40:42;;;;;;;116.63;49.17;;;2.40;99.90;;;;;;5035122;28;20483;-72
2023/04/09 04:43:08;;;;;;;123.22;52.10;;;2.30;99.90;;;;;;5035502;28;20105;-73
2023/04/09 04:45:34;;;;;;;139.05;55.03;;;2.40;99.90;;;;;;5034912;28;20026;-72
2023/04/09 04:47:59;;;;;;;140.25;54.53;;;2.50;99.90;;;;;;5034971;28;20033;-72
2023/04/09 04:50:25;;;;;;;141.90;55.70;;;2.60;99.90;;;;;;5035225;28;20549;-73
2023/04/09 04:52:50;;;;;;;147.48;59.05;;;2.50;99.90;;;;;;5035177;28;20079;-72
2023/04/09 04:55:16;;;;;;;148.60;55.80;;;2.60;99.90;;;;;;5035092;28;20085;-72
2023/04/09 04:57:41;;;;;;;144.68;56.53;;;2.70;99.90;;;;;;5035206;28;20087;-72
2023/04/09 05:00:07;;;;;;;138.68;55.08;;;2.70;99.90;;;;;;5035082;28;20036;-73
2023/04/09 05:02:33;;;;;;;157.57;62.13;;;2.80;99.90;;;;;;5034593;28;20117;-72
2023/04/09 05:04:58;;;;;;;169.43;63.20;;;2.90;99.90;;;;;;5034529;28;20454;-72
2023/04/09 05:07:24;;;;;;;159.15;61.25;;;3.00;99.90;;;;;;5034940;28;20453;-72
2023/04/09 05:09:50;;;;;;;161.10;62.03;;;3.10;99.90;;;;;;5034910;28;20032;-73
2023/04/09 05:12:16;;;;;;;160.45;63.92;;;3.20;99.90;;;;;;5034582;28;20033;-72
2023/04/09 05:14:43;;;;;;;168.57;64.82;;;3.30;99.90;;;;;;5034803;28;20120;-72
2023/04/09 05:17:08;;;;;;;169.98;66.45;;;3.40;99.90;;;;;;5034527;28;20033;-72
2023/04/09 05:19:34;;;;;;;157.15;62.78;;;3.50;99.90;;;;;;5034334;28;20095;-73
2023/04/09 05:21:59;;;;;;;153.82;61.60;;;3.70;99.90;;;;;;5034658;28;20029;-73
2023/04/09 05:24:25;;;;;;;172.50;67.93;;;4.00;99.90;;;;;;5034248;28;20444;-73
2023/04/09 05:26:51;;;;;;;170.35;67.97;;;4.30;99.90;;;;;;5034528;28;20108;-73
2023/04/09 05:29:16;;;;;;;164.80;64.97;;;4.40;99.90;;;;;;5034577;28;20072;-72
2023/04/09 05:31:42;;;;;;;154.07;63.65;;;4.60;99.90;;;;;;5034074;28;20032;-72
2023/04/09 05:34:08;;;;;;;146.40;60.22;;;4.80;99.90;;;;;;5034346;28;20041;-73
2023/04/09 05:36:33;;;;;;;128.52;56.33;;;4.90;99.90;;;;;;5034104;28;20033;-73
2023/04/09 05:38:59;;;;;;;115.57;54.08;;;5.00;99.90;;;;;;5034048;28;20143;-72
2023/04/09 05:41:25;;;;;;;113.82;52.15;;;5.10;99.90;;;;;;5034433;28;20509;-72
2023/04/09 05:43:50;;;;;;;114.28;52.13;;;5.10;99.90;;;;;;5033253;28;20047;-72
2023/04/09 05:46:16;;;;;;;114.07;52.88;;;5.40;99.90;;;;;;5034287;28;20033;-73
2023/04/09 05:48:41;;;;;;;112.10;50.92;;;5.90;99.90;;;;;;5034379;28;20021;-72
2023/04/09 05:51:08;;;;;;;104.75;50.33;;;6.40;99.90;;;;;;5034108;28;20080;-72
2023/04/09 05:53:34;;;;;;;92.05;45.45;;;7.10;99.90;;;;;;5034058;28;20037;-73
2023/04/09 05:55:59;;;;;;;78.82;41.03;;;7.90;99.90;;;;;;5033954;28;20484;-73
2023/04/09 05:58:27;;;;;;;62.28;36.17;;;8.30;99.90;;;;;;5033554;28;20026;-73
2023/04/09 06:00:53;;;;;;;60.17;34.65;;;8.70;99.90;;;;;;5033565;28;20108;-73
2023/04/09 06:03:18;;;;;;;55.65;33.13;;;9.40;71.60;;;;;;5033483;28;20105;-73
2023/04/09 06:05:45;;;;;;;55.80;34.58;;;10.10;1.00;;;;;;5033593;28;20048;-73
2023/04/09 06:08:11;;;;;;;53.70;33.45;;;10.10;1.00;;;;;;5033854;28;20479;-73
2023/04/09 06:10:37;;;;;;;52.13;32.80;;;10.20;1.00;;;;;;5033332;28;20365;-74
2023/04/09 06:13:02;;;;;;;52.75;33.67;;;10.10;1.00;;;;;;5033451;28;20025;-73
2023/04/09 06:15:28;;;;;;;56.40;33.95;;;10.70;99.90;;;;;;5033682;28;20037;-73
2023/04/09 06:17:53;;;;;;;55.10;34.70;;;10.40;99.90;;;;;;5033692;28;20033;-73
2023/04/09 06:20:20;;;;;;;51.72;33.42;;;10.60;99.90;;;;;;5033690;28;20029;-74
2023/04/09 06:22:45;;;;;;;49.97;33.10;;;10.70;99.90;;;;;;5033089;28;20017;-73
2023/04/09 06:25:11;;;;;;;55.10;33.63;;;11.00;99.90;;;;;;5033279;28;20033;-73
2023/04/09 06:27:36;;;;;;;48.90;32.58;;;10.80;99.90;;;;;;5033138;28;20060;-73
2023/04/09 06:30:02;;;;;;;51.17;33.38;;;11.60;99.90;;;;;;5033474;28;20033;-74
2023/04/09 06:32:27;;;;;;;48.80;32.70;;;12.00;41.30;;;;;;5033391;28;20029;-74
2023/04/09 06:34:53;;;;;;;55.00;34.10;;;12.70;1.00;;;;;;5033124;28;20087;-74
2023/04/09 06:37:18;;;;;;;50.13;32.90;;;12.80;99.90;;;;;;5033081;28;20053;-74
2023/04/09 06:39:44;;;;;;;49.33;32.88;;;13.00;99.90;;;;;;5033354;28;20372;-74
2023/04/09 06:42:10;;;;;;;46.50;32.17;;;13.90;99.90;;;;;;5033215;28;20028;-73
2023/04/09 06:44:35;;;;;;;47.97;32.65;;;14.60;99.90;;;;;;5032965;28;20025;-74
2023/04/09 06:47:01;;;;;;;45.58;33.03;;;14.80;99.90;;;;;;5033202;28;20494;-74
2023/04/09 06:49:26;;;;;;;43.22;31.70;;;13.60;99.90;;;;;;5032914;28;20113;-74
2023/04/09 06:51:52;;;;;;;42.50;30.52;;;13.90;99.90;;;;;;5033376;28;20053;-74
2023/04/09 06:54:18;;;;;;;42.80;31.65;;;14.80;1.00;;;;;;5034618;28;20136;-74
2023/04/09 06:56:45;;;;;;;45.28;30.83;;;;;;;;;;5037404;28;20488;-73
2023/04/09 06:59:11;;;;;;;41.83;29.80;;;;;;;;;;5036750;28;20065;-74
2023/04/09 07:01:37;;;;;;;44.45;30.88;;;15.40;99.90;;;;;;5036839;28;20036;-74
2023/04/09 07:04:03;;;;;;;38.95;28.90;;;15.30;1.00;;;;;;5037216;28;20391;-74
2023/04/09 07:06:29;;;;;;;39.22;28.75;;;15.50;1.00;;;;;;5036910;28;20037;-74
2023/04/09 07:08:55;;;;;;;38.35;28.23;;;15.60;1.00;;;;;;5037171;28;20033;-74
2023/04/09 07:11:20;;;;;;;40.42;29.45;;;15.80;99.90;;;;;;5037116;28;20091;-74
2023/04/09 07:13:46;;;;;;;39.05;28.80;;;16.30;99.90;;;;;;5037204;28;20025;-73
2023/04/09 07:16:11;;;;;;;39.35;29.13;;;16.60;99.90;;;;;;5037221;28;20108;-74
2023/04/09 07:18:37;;;;;;;40.50;29.45;;;15.50;1.00;;;;;;5036916;28;20022;-74
2023/04/09 07:21:02;;;;;;;35.28;26.65;;;16.20;1.00;;;;;;5036620;28;20025;-74
2023/04/09 07:23:28;;;;;;;36.45;28.05;;;16.10;1.00;;;;;;5037594;28;20029;-74
2023/04/09 07:25:53;;;;;;;39.78;27.60;;;16.60;1.00;;;;;;5037354;28;20025;-74
2023/04/09 07:28:19;;;;;;;32.92;25.58;;;17.20;1.00;;;;;;5037328;28;20030;-74
2023/04/09 07:30:45;;;;;;;34.45;26.92;;;17.00;1.00;;;;;;5036946;28;20029;-74
2023/04/09 07:33:11;;;;;;;34.63;25.85;;;16.50;1.00;;;;;;5037267;28;20063;-74
2023/04/09 07:35:36;;;;;;;31.55;25.27;;;16.80;1.00;;;;;;5036830;28;20065;-74
2023/04/09 07:38:02;;;;;;;35.00;26.08;;;;;;;;;;5036143;28;20088;-74
2023/04/09 07:40:28;;;;;;;31.55;24.23;;;;;;;;;;5036256;28;20032;-74
2023/04/09 07:42:54;;;;;;;29.02;22.75;;;;;;;;;;5036536;28;20029;-74
2023/04/09 07:45:20;;;;;;;31.50;23.70;;;19.30;99.90;;;;;;5036083;28;20017;-74
2023/04/09 07:47:46;;;;;;;30.13;23.48;;;19.40;99.90;;;;;;5036539;28;20083;-74
2023/04/09 07:50:11;;;;;;;32.83;23.65;;;17.60;99.90;;;;;;5036358;28;20033;-74
2023/04/09 07:52:37;;;;;;;30.88;22.30;;;18.10;99.90;;;;;;5036111;28;20034;-74
2023/04/09 07:55:03;;;;;;;29.50;23.17;;;;;;;;;;5035929;28;20037;-74
2023/04/09 07:57:31;;;;;;;31.67;22.90;;;;;;;;;;5036282;28;20030;-74
2023/04/09 07:59:57;;;;;;;27.15;20.58;;;;;;;;;;5036143;28;20041;-73
2023/04/09 08:02:56;;;;;;;27.88;21.42;;;;;;;;;;5036002;28;20121;-74
2023/04/09 08:05:25;;;;;;;26.33;20.77;;;;;;;;;;5035252;28;20029;-74
2023/04/09 08:07:52;;;;;;;27.48;21.02;;;;;;;;;;5036086;28;20029;-74
2023/04/09 08:10:19;;;;;;;27.90;21.63;;;;;;;;;;5035694;28;20018;-74
2023/04/09 08:12:55;;;;;;;26.95;20.67;;;;;;;;;;5036026;28;20105;-74
2023/04/09 08:15:21;;;;;;;26.90;20.55;;;;;;;;;;5035836;28;20038;-74
2023/04/09 08:17:47;;;;;;;28.95;20.58;;;;;;;;;;5035782;28;20024;-74
2023/04/09 08:20:15;;;;;;;27.30;21.30;;;;;;;;;;5035945;28;20033;-74
2023/04/09 08:22:41;;;;;;;29.17;21.27;;;;;;;;;;5035614;28;20060;-73
2023/04/09 08:25:07;;;;;;;24.35;20.25;;;;;;;;;;5035299;28;20392;-74
2023/04/09 08:27:34;;;;;;;27.55;21.40;;;;;;;;;;5035220;28;20038;-73
2023/04/09 08:30:01;;;;;;;27.77;21.73;;;;;;;;;;5035633;28;20026;-74
2023/04/09 08:32:27;;;;;;;29.90;22.63;;;;;;;;;;5035136;28;20053;-73
2023/04/09 08:34:53;;;;;;;27.05;21.20;;;;;;;;;;5035167;28;20064;-73
2023/04/09 08:37:19;;;;;;;28.95;20.67;;;;;;;;;;5035071;28;20041;-74
2023/04/09 08:39:45;;;;;;;31.00;23.30;;;;;;;;;;5035324;28;20037;-74
2023/04/09 08:42:11;;;;;;;29.38;23.05;;;;;;;;;;5035043;28;20025;-73
2023/04/09 08:44:37;;;;;;;30.25;22.17;;;;;;;;;;5035100;28;20705;-74
2023/04/09 08:47:08;;;;;;;29.30;22.75;;;;;;;;;;5034828;28;20017;-73
2023/04/09 08:49:35;;;;;;;30.45;22.42;;;;;;;;;;5035221;28;20506;-73
2023/04/09 08:52:00;;;;;;;27.80;22.33;;;;;;;;;;5034955;28;20027;-73
2023/04/09 08:54:26;;;;;;;32.03;23.23;;;;;;;;;;5035167;28;20029;-74
2023/04/09 08:56:52;;;;;;;29.42;22.52;;;;;;;;;;5035281;28;20479;-73
2023/04/09 08:59:18;;;;;;;28.33;22.00;;;;;;;;;;5034986;28;20401;-73
2023/04/09 09:01:46;;;;;;;28.52;22.23;;;;;;;;;;5034794;28;20464;-74
2023/04/09 09:04:12;;;;;;;31.00;22.90;;;;;;;;;;5034921;28;20472;-74
2023/04/09 09:06:40;;;;;;;28.63;21.88;;;;;;;;;;5034630;28;20503;-74
2023/04/09 09:09:20;;;;;;;26.63;21.23;;;;;;;;;;5034832;28;20036;-73
2023/04/09 09:11:49;;;;;;;28.60;22.83;;;;;;;;;;5034525;28;20030;-73
2023/04/09 09:14:17;;;;;;;24.88;19.92;;;;;;;;;;5034763;28;20026;-73
2023/04/09 09:16:45;;;;;;;28.13;20.50;;;;;;;;;;5034404;28;20417;-74
2023/04/09 09:19:53;;;;;;;28.02;21.00;;;;;;;;;;5034005;28;20487;-73
2023/04/09 09:22:19;;;;;;;25.23;20.02;;;;;;;;;;5034661;28;20108;-73
2023/04/09 09:24:47;;;;;;;27.00;21.25;;;;;;;;;;5034706;28;20025;-73
2023/04/09 09:27:13;;;;;;;26.85;20.75;;;;;;;;;;5034551;28;20018;-73
2023/04/09 09:29:43;;;;;;;25.40;19.08;;;19.80;99.90;;;;;;5034126;28;20395;-73
2023/04/09 09:32:12;;;;;;;29.60;19.80;;;20.00;99.90;;;;;;5034365;28;20116;-73
2023/04/09 09:34:38;;;;;;;26.10;20.70;;;19.20;99.90;;;;;;5034238;28;20033;-73
2023/04/09 09:37:25;;;;;;;26.17;19.38;;;19.40;99.90;;;;;;5033996;28;20060;-73
2023/04/09 09:39:51;;;;;;;24.42;18.73;;;18.90;99.90;;;;;;5033795;28;20029;-73
2023/04/09 09:42:16;;;;;;;23.77;18.92;;;18.80;99.90;;;;;;5034335;28;20025;-73
2023/04/09 09:44:47;;;;;;;24.05;19.80;;;;;;;;;;5034383;28;20036;-74
2023/04/09 09:47:16;;;;;;;23.42;18.13;;;;;;;;;;5034059;28;20029;-73
2023/04/09 09:49:42;;;;;;;22.27;16.48;;;19.40;99.90;;;;;;5034023;28;20029;-73
2023/04/09 09:52:09;;;;;;;20.67;17.08;;;19.40;99.90;;;;;;5034102;28;20029;-73
2023/04/09 09:54:40;;;;;;;21.73;17.10;;;18.80;99.90;;;;;;5033835;28;20095;-74
2023/04/09 09:57:09;;;;;;;20.95;17.23;;;19.10;99.90;;;;;;5033942;28;20452;-73
2023/04/09 09:59:39;;;;;;;20.75;17.15;;;19.30;99.90;;;;;;5033453;28;20037;-73
2023/04/09 10:02:07;;;;;;;21.70;16.63;;;19.70;99.90;;;;;;5033467;28;20056;-73
2023/04/09 10:04:35;;;;;;;18.73;16.52;;;20.10;99.90;;;;;;5033428;28;20026;-74
2023/04/09 10:07:04;;;;;;;23.88;17.10;;;20.40;1.00;;;;;;5033372;28;20025;-73
2023/04/09 10:09:31;;;;;;;21.30;17.70;;;20.20;1.00;;;;;;5033761;28;20037;-73
2023/04/09 10:11:59;;;;;;;21.88;17.02;;;19.90;1.00;;;;;;5033854;28;20079;-74
2023/04/09 10:14:27;;;;;;;18.77;15.57;;;19.90;1.00;;;;;;5033790;28;20029;-73
2023/04/09 10:16:53;;;;;;;17.80;14.85;;;19.70;1.00;;;;;;5033708;28;20033;-73
2023/04/09 10:19:19;;;;;;;20.88;16.38;;;19.60;99.90;;;;;;5033623;28;20395;-75
2023/04/09 10:22:08;;;;;;;20.58;16.67;;;18.80;1.00;;;;;;5033481;28;20029;-73
2023/04/09 10:24:35;;;;;;;22.13;16.50;;;17.70;99.90;;;;;;5033686;28;20071;-73
2023/04/09 10:27:15;;;;;;;21.45;17.27;;;16.80;99.90;;;;;;5033058;28;20072;-73
2023/04/09 10:29:44;;;;;;;22.60;16.20;;;17.30;45.40;;;;;;5032790;28;20491;-74
2023/04/09 10:32:10;;;;;;;22.73;17.42;;;18.00;15.80;;;;;;5033507;28;20091;-73
2023/04/09 10:34:39;;;;;;;22.55;18.00;;;19.00;1.00;;;;;;5033050;28;20030;-74
2023/04/09 10:37:09;;;;;;;20.17;15.77;;;19.20;1.00;;;;;;5033162;28;20049;-73
2023/04/09 10:39:43;;;;;;;21.02;16.73;;;19.90;96.60;;;;;;5033119;28;20049;-73
2023/04/09 10:42:12;;;;;;;;;;;19.70;99.90;;;;;;5033510;28;20026;-74
2023/04/09 10:44:40;;;;;;;19.90;15.90;;;19.60;99.90;;;;;;5033328;28;20306;-73
2023/04/09 10:47:08;;;;;;;19.40;14.98;;;20.40;99.90;;;;;;5033299;28;20025;-73
2023/04/09 10:49:37;;;;;;;20.52;14.80;;;19.70;99.90;;;;;;5032919;28;20021;-73
2023/04/09 10:52:05;;;;;;;17.50;14.88;;;;;;;;;;5032924;28;20032;-73
2023/04/09 10:57:20;;;;;;;16.58;13.60;;;;;;;;;;5111344;27;20347;-72
2023/04/09 10:59:52;;;;;;;19.10;15.10;;;;;;;;;;5111517;28;20055;-72
2023/04/09 11:02:47;;;;;;;18.58;14.30;;;;;;;;;;5111248;28;20024;-72
2023/04/09 11:05:33;;;;;;;20.92;16.63;;;18.00;1.00;;;;;;5111073;28;20024;-72
2023/04/09 11:08:11;;;;;;;22.55;15.88;;;17.30;99.90;;;;;;5111173;28;20032;-72
2023/04/09 11:10:40;;;;;;;22.48;15.10;;;17.60;99.50;;;;;;5111336;28;20030;-73
2023/04/09 11:13:05;;;;;;;17.58;14.18;;;17.60;99.90;;;;;;5110702;28;20045;-72
2023/04/09 11:15:33;;;;;;;20.70;15.05;;;17.30;99.90;;;;;;5110542;28;20024;-72
2023/04/09 11:18:00;;;;;;;22.40;14.32;;;17.50;99.90;;;;;;5110617;28;20107;-72
2023/04/09 11:20:26;;;;;;;17.98;13.93;;;17.40;99.90;;;;;;5110586;28;20020;-72
2023/04/09 11:22:54;;;;;;;18.85;14.88;;;17.80;99.90;;;;;;5110510;28;20512;-72
2023/04/09 11:25:22;;;;;;;17.58;13.55;;;17.50;99.90;;;;;;5110431;28;20473;-73
2023/04/09 11:27:47;;;;;;;19.00;13.90;;;17.50;99.90;;;;;;5110307;27;20024;-72
2023/04/09 11:30:13;;;;;;;18.00;12.93;;;17.10;99.90;;;;;;5110679;28;20085;-72
2023/04/09 11:32:40;;;;;;;18.02;14.27;;;;;;;;;;5110618;28;20096;-72
2023/04/09 11:35:11;;;;;;;19.10;13.35;;;;;;;;;;5110497;28;20024;-74
2023/04/09 11:37:40;;;;;;;19.05;13.75;;;;;;;;;;5110519;28;20046;-72
2023/04/09 11:40:10;;;;;;;18.38;14.05;;;;;;;;;;5110142;28;20431;-72
2023/04/09 11:42:39;;;;;;;18.92;14.38;;;;;;;;;;5110227;28;20059;-72
2023/04/09 11:45:10;;;;;;;18.55;13.48;;;;;;;;;;5110074;28;20024;-72
2023/04/09 11:47:41;;;;;;;18.33;13.13;;;;;;;;;;5110039;28;20044;-72
2023/04/09 11:50:10;;;;;;;17.77;13.75;;;;;;;;;;5110334;28;20024;-72
2023/04/09 11:52:40;;;;;;;17.00;12.75;;;;;;;;;;5110216;28;20022;-73
2023/04/09 11:55:14;;;;;;;17.23;13.65;;;;;;;;;;5110084;28;20043;-72
2023/04/09 11:57:50;;;;;;;20.17;14.63;;;;;;;;;;5109803;28;20028;-71
2023/04/09 12:00:23;;;;;;;19.48;13.27;;;;;;;;;;5109826;27;20024;-71
2023/04/09 12:02:53;;;;;;;21.35;14.85;;;;;;;;;;5110284;28;20020;-72
2023/04/09 12:05:37;;;;;;;18.23;13.35;;;;;;;;;;5110121;28;20062;-72
2023/04/09 12:08:07;;;;;;;16.90;12.70;;;;;;;;;;5098694;28;20047;-72
2023/04/09 12:10:36;;;;;;;13.43;10.95;;;;;;;;;;5095983;28;20054;-72
2023/04/09 12:13:04;;;;;;;16.48;12.02;;;;;;;;;;5096185;28;20063;-71
2023/04/09 12:15:32;;;;;;;14.35;11.43;;;;;;;;;;5096356;28;20485;-72
2023/04/09 12:17:59;;;;;;;13.93;11.55;;;;;;;;;;5095763;28;20388;-72
2023/04/09 12:20:29;;;;;;;17.75;12.77;;;16.30;99.90;;;;;;5096190;28;20027;-72
2023/04/09 12:22:55;;;;;;;16.73;12.32;;;15.60;99.90;;;;;;5095731;28;20119;-72
2023/04/09 12:25:20;;;;;;;15.52;12.15;;;15.70;99.90;;;;;;5096085;28;20042;-72
2023/04/09 12:27:46;;;;;;;14.75;11.48;;;16.00;99.90;;;;;;5095688;28;20474;-71
2023/04/09 12:30:12;;;;;;;15.30;11.90;;;16.20;99.90;;;;;;5095992;28;20107;-72
2023/04/09 12:32:37;;;;;;;17.35;12.48;;;16.10;99.90;;;;;;5095789;28;20043;-72
2023/04/09 12:35:03;;;;;;;14.80;11.23;;;15.80;99.90;;;;;;5095833;28;20032;-72
2023/04/09 12:37:29;;;;;;;13.75;11.13;;;16.40;99.90;;;;;;5095490;28;20051;-72
2023/04/09 12:39:55;;;;;;;15.55;12.05;;;16.70;99.90;;;;;;5095463;28;20059;-72
2023/04/09 12:42:20;;;;;;;17.05;12.07;;;16.60;99.90;;;;;;5095860;28;20089;-72
2023/04/09 12:44:46;;;;;;;17.38;11.25;;;16.40;99.90;;;;;;5095757;28;20028;-72
2023/04/09 12:47:12;;;;;;;15.85;12.00;;;16.50;99.90;;;;;;5095322;28;20028;-72
2023/04/09 12:49:38;;;;;;;15.95;12.55;;;17.10;99.90;;;;;;5095717;28;20496;-72
2023/04/09 12:52:03;;;;;;;15.95;11.52;;;16.90;99.90;;;;;;5095576;28;20478;-72
2023/04/09 12:54:29;;;;;;;16.23;12.30;;;16.70;99.90;;;;;;5095224;28;20024;-72
2023/04/09 12:56:55;;;;;;;17.27;12.30;;;16.50;99.90;;;;;;5094990;28;20076;-72